Time;durP1;ratioP1;P1;durP2;ratioP2;P2;SDS_P1;SDS_P2;PMS_P1;PMS_P2;Temp;Humidity;BMP_temperature;BMP_pressure;BME280_temperature;BME280_humidity;BME280_pressure;Samples;Min_cycle;Max_cycle;Signal;HPM_P1;HPM_P2
2021/01/31 00:00:29;;;;;;;9.07;6.23;;;;;;;;;;5092551;28;20058;-56
2021/01/31 00:02:54;;;;;;;8.90;5.87;;;;;;;;;;5092751;28;20039;-57
2021/01/31 00:05:21;;;;;;;7.13;5.60;;;;;;;;;;5089988;28;20016;-51
2021/01/31 00:07:46;;;;;;;8.53;6.43;;;;;;;;;;5091622;28;20035;-53
2021/01/31 00:10:14;;;;;;;9.37;6.53;;;;;;;;;;5089975;28;20024;-55
2021/01/31 00:12:39;;;;;;;11.17;7.23;;;;;;;;;;5080072;28;20367;-53
2021/01/31 00:15:06;;;;;;;9.20;6.00;;;;;;;;;;5083116;28;20027;-54
2021/01/31 00:17:31;;;;;;;9.27;7.33;;;;;;;;;;5091884;28;20106;-52
2021/01/31 00:19:56;;;;;;;9.20;6.03;;;;;;;;;;5090135;28;20590;-56
2021/01/31 00:22:21;;;;;;;8.70;6.47;;;;;;;;;;5091427;28;20027;-56
2021/01/31 00:24:53;;;;;;;8.67;5.00;;;;;;;;;;5091268;28;20054;-51
2021/01/31 00:27:18;;;;;;;8.83;6.30;;;;;;;;;;5086563;28;20017;-55
2021/01/31 00:29:43;;;;;;;9.10;6.10;;;;;;;;;;5084467;28;20040;-53
2021/01/31 00:32:09;;;;;;;9.13;5.80;;;;;;;;;;5082434;28;20058;-54
2021/01/31 00:34:34;;;;;;;8.97;7.03;;;;;;;;;;5090898;28;20394;-57
2021/01/31 00:36:59;;;;;;;9.37;6.20;;;;;;;;;;5087331;28;20479;-53
2021/01/31 00:39:24;;;;;;;10.53;5.83;;;;;;;;;;5090605;28;20056;-58
2021/01/31 00:41:49;;;;;;;9.00;5.70;;;;;;;;;;5088197;28;20103;-55
2021/01/31 00:44:15;;;;;;;8.87;5.70;;;;;;;;;;5089004;28;20417;-53
2021/01/31 00:46:41;;;;;;;9.20;7.07;;;;;;;;;;5088874;28;20020;-51
2021/01/31 00:49:06;;;;;;;8.77;6.23;;;;;;;;;;5083346;28;20115;-57
2021/01/31 00:51:32;;;;;;;8.97;6.50;;;;;;;;;;5090484;28;20466;-53
2021/01/31 00:53:57;;;;;;;8.53;5.83;;;;;;;;;;5080438;28;20062;-56
2021/01/31 00:56:22;;;;;;;9.13;5.53;;;;;;;;;;5092591;28;20019;-56
2021/01/31 00:58:48;;;;;;;9.57;6.70;;;;;;;;;;5089456;28;20095;-54
2021/01/31 01:01:14;;;;;;;7.97;5.83;;;;;;;;;;5086902;28;20020;-52
2021/01/31 01:03:39;;;;;;;7.63;4.90;;;;;;;;;;5091079;28;20091;-54
2021/01/31 01:06:04;;;;;;;7.60;5.23;;;;;;;;;;5075598;28;20039;-54
2021/01/31 01:08:29;;;;;;;8.00;5.33;;;;;;;;;;5094195;28;20020;-56
2021/01/31 01:10:55;;;;;;;8.83;6.30;;;;;;;;;;5095248;28;20024;-52
2021/01/31 01:13:20;;;;;;;7.23;4.90;;;;;;;;;;5095374;28;20023;-55
2021/01/31 01:15:45;;;;;;;7.27;5.80;;;;;;;;;;5091355;28;20429;-49
2021/01/31 01:18:10;;;;;;;9.63;5.63;;;;;;;;;;5094269;28;20425;-54
2021/01/31 01:20:36;;;;;;;8.13;5.57;;;;;;;;;;5094612;28;20012;-55
2021/01/31 01:23:01;;;;;;;7.10;5.00;;;;;;;;;;5095435;28;20024;-52
2021/01/31 01:25:26;;;;;;;8.57;5.60;;;;;;;;;;5091935;28;20510;-54
2021/01/31 01:27:51;;;;;;;8.27;6.00;;;;;;;;;;5094188;28;20040;-53
2021/01/31 01:30:18;;;;;;;7.57;5.17;;;;;;;;;;5090528;28;20131;-54
2021/01/31 01:32:43;;;;;;;6.80;4.90;;;;;;;;;;5089973;28;20028;-51
2021/01/31 01:35:09;;;;;;;7.60;5.00;;;;;;;;;;5090402;28;20119;-56
2021/01/31 01:37:34;;;;;;;7.03;4.77;;;;;;;;;;5094390;28;20058;-55
2021/01/31 01:40:00;;;;;;;7.00;4.87;;;;;;;;;;5094613;28;20027;-54
2021/01/31 01:42:25;;;;;;;8.23;6.10;;;;;;;;;;5076642;28;20020;-54
2021/01/31 01:44:50;;;;;;;6.47;5.17;;;;;;;;;;5085503;28;20012;-54
2021/01/31 01:47:18;;;;;;;8.37;5.17;;;;;;;;;;5092255;28;20016;-54
2021/01/31 01:49:45;;;;;;;8.20;5.13;;;;;;;;;;5091489;28;20098;-52
2021/01/31 01:52:34;;;;;;;8.07;4.83;;;;;;;;;;5089576;28;20017;-55
2021/01/31 01:55:02;;;;;;;6.87;4.70;;;;;;;;;;5089398;28;20470;-54
2021/01/31 01:57:29;;;;;;;7.07;4.93;;;;;;;;;;5093340;28;20442;-55
2021/01/31 01:59:55;;;;;;;8.67;5.57;;;;;;;;;;5093388;28;20107;-55
2021/01/31 02:02:22;;;;;;;8.07;5.87;;;;;;;;;;5092678;28;20119;-55
2021/01/31 02:04:48;;;;;;;7.77;4.93;;;;;;;;;;5093520;28;20016;-55
2021/01/31 02:07:13;;;;;;;7.10;4.60;;;;;;;;;;5091506;28;20016;-54
2021/01/31 02:09:39;;;;;;;7.07;4.83;;;;;;;;;;5091164;28;20145;-55
2021/01/31 02:12:05;;;;;;;5.07;3.80;;;;;;;;;;5089770;28;20372;-55
2021/01/31 02:14:32;;;;;;;6.33;4.53;;;;;;;;;;5082313;28;20099;-56
2021/01/31 02:17:05;;;;;;;7.03;4.67;;;;;;;;;;5090471;28;20065;-54
2021/01/31 02:19:41;;;;;;;7.70;5.27;;;;;;;;;;5093287;28;20027;-56
2021/01/31 02:22:12;;;;;;;7.50;5.57;;;;;;;;;;5093462;28;20513;-55
2021/01/31 02:24:49;;;;;;;9.30;5.70;;;;;;;;;;5094355;28;20059;-56
2021/01/31 02:27:32;;;;;;;8.27;6.20;;;;;;;;;;5086744;28;20020;-52
2021/01/31 02:30:00;;;;;;;8.13;5.47;;;;;;;;;;5091728;28;20040;-54
2021/01/31 02:32:34;;;;;;;6.63;4.60;;;;;;;;;;5093814;28;20070;-57
2021/01/31 02:35:02;;;;;;;7.13;5.03;;;;;;;;;;5090816;28;20099;-52
2021/01/31 02:37:39;;;;;;;8.73;5.87;;;;;;;;;;5093335;28;20482;-57
2021/01/31 02:40:13;;;;;;;8.20;6.03;;;;;;;;;;5091996;28;20471;-56
2021/01/31 02:42:43;;;;;;;7.27;5.07;;;;;;;;;;5089251;28;20125;-55
2021/01/31 02:45:09;;;;;;;7.30;5.23;;;;;;;;;;5089649;28;20052;-52
2021/01/31 02:47:36;;;;;;;7.07;5.23;;;;;;;;;;5094352;28;20116;-55
2021/01/31 02:50:06;;;;;;;7.57;4.93;;;;;;;;;;5090934;28;20427;-52
2021/01/31 02:52:33;;;;;;;8.70;5.73;;;;;;;;;;5093081;28;20024;-57
2021/01/31 02:55:02;;;;;;;8.67;5.17;;;;;;;;;;5091205;28;20027;-50
2021/01/31 02:57:39;;;;;;;7.10;5.33;;;;;;;;;;5092396;28;20054;-54
2021/01/31 03:00:16;;;;;;;7.67;4.93;;;;;;;;;;5092316;28;20038;-56
2021/01/31 03:02:54;;;;;;;8.17;5.73;;;;;;;;;;5090649;28;20383;-54
2021/01/31 03:05:21;;;;;;;8.43;5.57;;;;;;;;;;5091101;28;20031;-55
2021/01/31 03:07:53;;;;;;;7.13;4.80;;;;;;;;;;5073916;28;20021;-55
2021/01/31 03:10:47;;;;;;;7.00;5.03;;;;;;;;;;5089805;28;20077;-56
2021/01/31 03:13:17;;;;;;;8.83;5.03;;;;;;;;;;5084068;28;20043;-53
2021/01/31 03:15:53;;;;;;;9.27;5.23;;;;;;;;;;5085189;28;20027;-57
2021/01/31 03:18:30;;;;;;;6.77;4.83;;;;;;;;;;5086857;28;20510;-55
2021/01/31 03:20:59;;;;;;;6.63;4.50;;;;;;;;;;5090614;28;20027;-56
2021/01/31 03:23:32;;;;;;;7.67;4.60;;;;;;;;;;5092221;28;20028;-55
2021/01/31 03:26:08;;;;;;;7.97;5.00;;;;;;;;;;5090495;28;20024;-54
2021/01/31 03:28:34;;;;;;;7.63;4.80;;;;;;;;;;5092008;28;20138;-51
2021/01/31 03:31:00;;;;;;;7.60;4.83;;;;;;;;;;5092473;28;20522;-54
2021/01/31 03:33:29;;;;;;;8.30;5.67;;;;;;;;;;5082333;28;20032;-55
2021/01/31 03:35:55;;;;;;;6.30;5.13;;;;;;;;;;5079042;28;20058;-56
2021/01/31 03:38:23;;;;;;;6.60;5.10;;;;;;;;;;5079986;28;20421;-53
2021/01/31 03:40:50;;;;;;;8.00;5.70;;;;;;;;;;5085075;28;20024;-53
2021/01/31 03:43:16;;;;;;;7.87;5.73;;;;;;;;;;5086312;28;20367;-54
2021/01/31 03:45:44;;;;;;;8.10;5.30;;;;;;;;;;5089186;28;20030;-52
2021/01/31 03:48:14;;;;;;;7.80;5.30;;;;;;;;;;5092635;28;20408;-57
2021/01/31 03:50:39;;;;;;;8.10;4.97;;;;;;;;;;5088284;28;20024;-55
2021/01/31 03:53:05;;;;;;;8.07;5.10;;;;;;;;;;5091764;28;20020;-57
2021/01/31 03:55:31;;;;;;;7.63;5.40;;;;;;;;;;5089199;28;20027;-56
2021/01/31 03:57:58;;;;;;;8.37;5.17;;;;;;;;;;5078176;28;20024;-54
2021/01/31 04:00:25;;;;;;;8.27;5.60;;;;;;;;;;5086460;28;20020;-57
2021/01/31 04:02:56;;;;;;;8.33;5.30;;;;;;;;;;5091283;28;20087;-52
2021/01/31 04:05:23;;;;;;;7.93;5.50;;;;;;;;;;5088912;28;20085;-56
2021/01/31 04:07:51;;;;;;;9.07;6.30;;;;;;;;;;5092382;28;20375;-58
2021/01/31 04:10:16;;;;;;;8.17;6.00;;;;;;;;;;5091697;28;20036;-57
2021/01/31 04:12:45;;;;;;;8.57;5.73;;;;;;;;;;5091541;28;20044;-58
2021/01/31 04:15:19;;;;;;;7.73;4.87;;;;;;;;;;5087705;28;20019;-55
2021/01/31 04:17:47;;;;;;;7.38;4.38;;;;;;;;;;5091917;28;20043;-51
2021/01/31 04:20:12;;;;;;;9.03;5.87;;;;;;;;;;5092328;28;20045;-55
2021/01/31 04:22:37;;;;;;;8.90;6.20;;;;;;;;;;5081195;28;20023;-54
2021/01/31 04:25:03;;;;;;;9.13;5.37;;;;;;;;;;5089067;28;20016;-56
2021/01/31 04:27:28;;;;;;;7.57;5.87;;;;;;;;;;5091263;28;20443;-58
2021/01/31 04:29:53;;;;;;;9.80;6.00;;;;;;;;;;5085903;28;20082;-54
2021/01/31 04:32:19;;;;;;;9.07;6.23;;;;;;;;;;5091825;28;20095;-56
2021/01/31 04:34:44;;;;;;;7.93;5.47;;;;;;;;;;5088995;28;20381;-53
2021/01/31 04:37:09;;;;;;;9.57;6.27;;;;;;;;;;5088955;28;20496;-53
2021/01/31 04:39:34;;;;;;;8.60;5.63;;;;;;;;;;5091696;28;20478;-57
2021/01/31 04:42:01;;;;;;;10.90;6.30;;;;;;;;;;5076761;28;20076;-55
2021/01/31 04:44:26;;;;;;;9.03;6.17;;;;;;;;;;5088791;28;20020;-53
2021/01/31 04:46:55;;;;;;;8.93;5.83;;;;;;;;;;5089406;28;20023;-57
2021/01/31 04:49:23;;;;;;;9.40;6.20;;;;;;;;;;5091011;28;20023;-54
2021/01/31 04:51:59;;;;;;;10.00;6.43;;;;;;;;;;5090343;28;20032;-57
2021/01/31 04:54:38;;;;;;;9.50;5.70;;;;;;;;;;5089196;28;20028;-58
2021/01/31 04:57:13;;;;;;;9.90;6.13;;;;;;;;;;5088105;28;20028;-55
2021/01/31 04:59:41;;;;;;;8.53;5.57;;;;;;;;;;5084940;28;20478;-55
2021/01/31 05:02:10;;;;;;;9.67;6.67;;;;;;;;;;5089566;28;20100;-56
2021/01/31 05:04:41;;;;;;;10.10;6.27;;;;;;;;;;5091517;28;20058;-57
2021/01/31 05:07:07;;;;;;;10.90;6.43;;;;;;;;;;5075218;28;20069;-56
2021/01/31 05:09:32;;;;;;;10.13;6.10;;;;;;;;;;5071613;28;20115;-58
2021/01/31 05:11:57;;;;;;;9.43;6.30;;;;;;;;;;5085639;28;20024;-58
2021/01/31 05:14:36;;;;;;;11.67;7.60;;;;;;;;;;5091646;28;20051;-56
2021/01/31 05:17:02;;;;;;;10.23;6.60;;;;;;;;;;5087011;28;20028;-56
2021/01/31 05:19:30;;;;;;;9.03;6.20;;;;;;;;;;5091044;28;20538;-54
2021/01/31 05:21:56;;;;;;;10.93;6.20;;;;;;;;;;5090920;28;20027;-55
2021/01/31 05:24:22;;;;;;;9.80;6.67;;;;;;;;;;5091916;28;20016;-57
2021/01/31 05:26:55;;;;;;;11.53;7.47;;;;;;;;;;5088507;28;20016;-55
2021/01/31 05:29:22;;;;;;;12.23;7.00;;;;;;;;;;5088860;28;20046;-56
2021/01/31 05:31:56;;;;;;;12.47;8.40;;;;;;;;;;5090531;28;20032;-52
2021/01/31 05:34:39;;;;;;;13.43;7.65;;;;;;;;;;5092759;28;20020;-54
2021/01/31 05:37:24;;;;;;;12.50;7.80;;;;;;;;;;5092594;28;20103;-55
2021/01/31 05:40:00;;;;;;;14.15;8.30;;;;;;;;;;5076576;28;20020;-56
2021/01/31 05:42:39;;;;;;;13.67;8.67;;;;;;;;;;5090741;28;20028;-54
2021/01/31 05:45:07;;;;;;;13.90;7.67;;;;;;;;;;5092955;28;20094;-52
2021/01/31 05:47:34;;;;;;;15.27;8.37;;;;;;;;;;5094516;28;20093;-57
2021/01/31 05:50:13;;;;;;;11.77;8.00;;;;;;;;;;5090219;28;20055;-54
2021/01/31 05:52:38;;;;;;;14.23;8.77;;;;;;;;;;5080188;28;20069;-56
2021/01/31 05:55:18;;;;;;;13.07;8.33;;;;;;;;;;5092240;28;20028;-53
2021/01/31 05:57:43;;;;;;;14.23;9.20;;;;;;;;;;5094124;28;20059;-56
2021/01/31 06:00:14;;;;;;;15.10;8.50;;;;;;;;;;5093415;28;20063;-55
2021/01/31 06:02:39;;;;;;;13.50;8.80;;;;;;;;;;5093577;28;20470;-57
2021/01/31 06:05:13;;;;;;;15.33;8.83;;;;;;;;;;5079516;28;20017;-57
2021/01/31 06:07:40;;;;;;;13.67;7.87;;;;;;;;;;5093650;28;20016;-56
2021/01/31 06:10:10;;;;;;;15.43;8.63;;;;;;;;;;5093930;28;20062;-56
2021/01/31 06:12:35;;;;;;;13.47;8.20;;;;;;;;;;5094724;28;20027;-57
2021/01/31 06:15:09;;;;;;;13.97;8.50;;;;;;;;;;5093055;28;20020;-58
2021/01/31 06:17:34;;;;;;;13.93;8.20;;;;;;;;;;5094666;28;20028;-57
2021/01/31 06:20:06;;;;;;;13.63;8.57;;;;;;;;;;5092597;28;20074;-56
2021/01/31 06:22:38;;;;;;;13.30;8.17;;;;;;;;;;5093705;28;20095;-58
2021/01/31 06:25:03;;;;;;;14.17;8.30;;;;;;;;;;5092032;28;20064;-54
2021/01/31 06:27:30;;;;;;;15.07;8.10;;;;;;;;;;5092939;28;20506;-57
2021/01/31 06:30:09;;;;;;;14.63;7.90;;;;;;;;;;5090270;28;20147;-58
2021/01/31 06:32:36;;;;;;;14.07;8.67;;;;;;;;;;5093716;28;20077;-55
2021/01/31 06:35:04;;;;;;;14.17;8.50;;;;;;;;;;5072199;28;20047;-52
2021/01/31 06:37:48;;;;;;;13.30;8.10;;;;;;;;;;5090504;28;20020;-56
2021/01/31 06:40:13;;;;;;;12.87;8.30;;;;;;;;;;5092195;28;20379;-56
2021/01/31 06:42:57;;;;;;;15.07;8.53;;;;;;;;;;5092624;28;20023;-52
2021/01/31 06:45:45;;;;;;;13.00;7.63;;;;;;;;;;5090785;28;20046;-53
2021/01/31 06:48:27;;;;;;;15.13;8.13;;;;;;;;;;5093851;28;20020;-58
2021/01/31 06:51:05;;;;;;;13.97;8.30;;;;;;;;;;5092561;28;20499;-56
2021/01/31 06:53:50;;;;;;;13.40;9.03;;;;;;;;;;5093121;28;20020;-57
2021/01/31 06:56:48;;;;;;;13.88;8.52;;;;;;;;;;5090658;28;20107;-56
2021/01/31 06:59:13;;;;;;;14.17;8.80;;;;;;;;;;5044489;28;20032;-53
2021/01/31 07:01:54;;;;;;;17.40;9.83;;;;;;;;;;5088236;28;20028;-54
2021/01/31 07:04:22;;;;;;;18.17;9.27;;;;;;;;;;5085482;28;20020;-57
2021/01/31 07:07:05;;;;;;;18.00;9.97;;;;;;;;;;5090299;28;20012;-55
2021/01/31 07:09:48;;;;;;;20.00;11.30;;;;;;;;;;5080106;28;20095;-54
2021/01/31 07:12:26;;;;;;;22.73;12.53;;;;;;;;;;5090318;28;20402;-57
2021/01/31 07:14:55;;;;;;;16.87;9.63;;;;;;;;;;5092858;28;20024;-55
2021/01/31 07:17:21;;;;;;;16.07;9.27;;;;;;;;;;5090279;28;20012;-54
2021/01/31 07:19:48;;;;;;;15.67;8.77;;;;;;;;;;5085346;28;20425;-55
2021/01/31 07:22:17;;;;;;;13.93;8.77;;;;;;;;;;5089335;28;20024;-55
2021/01/31 07:25:00;;;;;;;12.43;8.30;;;;;;;;;;5081936;28;20502;-58
2021/01/31 07:27:32;;;;;;;16.27;8.53;;;;;;;;;;5085815;28;20009;-58
2021/01/31 07:30:04;;;;;;;13.67;7.40;;;;;;;;;;5086829;28;20044;-56
2021/01/31 07:32:34;;;;;;;13.97;8.50;;;;;;;;;;5087822;28;20020;-58
2021/01/31 07:35:09;;;;;;;14.23;8.07;;;;;;;;;;5091002;28;20467;-53
2021/01/31 07:37:36;;;;;;;14.43;8.90;;;;;;;;;;5089266;28;20028;-57
2021/01/31 07:40:10;;;;;;;12.53;7.83;;;;;;;;;;5081560;28;20070;-57
2021/01/31 07:42:37;;;;;;;14.68;7.90;;;;;;;;;;5084150;28;20020;-58
2021/01/31 07:45:05;;;;;;;15.87;8.37;;;;;;;;;;5086124;28;20028;-56
2021/01/31 07:47:30;;;;;;;13.63;7.60;;;;;;;;;;5091512;28;20034;-56
2021/01/31 07:49:56;;;;;;;15.07;9.03;;;;;;;;;;5088564;28;20474;-55
2021/01/31 07:52:26;;;;;;;14.60;9.17;;;;;;;;;;5089682;28;20020;-56
2021/01/31 07:55:07;;;;;;;13.93;7.97;;;;;;;;;;5091703;28;20027;-54
2021/01/31 07:57:37;;;;;;;14.10;8.83;;;;;;;;;;5090722;28;20024;-57
2021/01/31 08:00:13;;;;;;;13.13;8.47;;;;;;;;;;5089520;28;20096;-58
2021/01/31 08:02:40;;;;;;;12.00;7.43;;;;;;;;;;5088971;28;20394;-56
2021/01/31 08:05:06;;;;;;;13.27;8.00;;;;;;;;;;5087556;28;20020;-52
2021/01/31 08:07:50;;;;;;;13.83;7.83;;;;;;;;;;5081383;28;20371;-57
2021/01/31 08:10:35;;;;;;;13.97;9.13;;;;;;;;;;5091365;28;20031;-54
2021/01/31 08:13:01;;;;;;;11.15;7.05;;;;;;;;;;5079428;28;20020;-53
2021/01/31 08:15:35;;;;;;;12.43;7.03;;;;;;;;;;5077948;28;20564;-52
2021/01/31 08:18:00;;;;;;;13.63;8.77;;;;;;;;;;5091805;28;20020;-54
2021/01/31 08:20:28;;;;;;;11.97;7.47;;;;;;;;;;5075052;28;20027;-56
2021/01/31 08:22:55;;;;;;;13.20;8.93;;;;;;;;;;5090438;28;20352;-57
2021/01/31 08:25:33;;;;;;;13.63;8.60;;;;;;;;;;5089475;28;20745;-56
2021/01/31 08:28:01;;;;;;;13.97;8.23;;;;;;;;;;5088051;28;20036;-57
2021/01/31 08:30:36;;;;;;;15.57;8.17;;;;;;;;;;5088015;28;20024;-55
2021/01/31 08:33:01;;;;;;;14.23;8.17;;;;;;;;;;5081777;28;20020;-56
2021/01/31 08:35:37;;;;;;;12.03;7.13;;;;;;;;;;5089391;28;20358;-56
2021/01/31 08:38:20;;;;;;;12.20;7.23;;;;;;;;;;5091385;28;20024;-57
2021/01/31 08:41:00;;;;;;;15.20;8.23;;;;;;;;;;5092044;28;20359;-55
2021/01/31 08:43:47;;;;;;;13.47;8.23;;;;;;;;;;5092520;28;20356;-57
2021/01/31 08:46:28;;;;;;;13.77;9.50;;;;;;;;;;5088827;28;20486;-54
2021/01/31 08:48:54;;;;;;;15.10;8.30;;;;;;;;;;5088131;28;20031;-55
2021/01/31 08:51:20;;;;;;;12.13;7.83;;;;;;;;;;5090346;28;20394;-54
2021/01/31 08:54:04;;;;;;;12.67;7.03;;;;;;;;;;5090882;28;20088;-53
2021/01/31 08:56:32;;;;;;;11.47;7.03;;;;;;;;;;5089062;28;20019;-55
2021/01/31 08:58:57;;;;;;;12.70;8.37;;;;;;;;;;5086727;28;20020;-56
2021/01/31 09:01:23;;;;;;;12.70;7.60;;;;;;;;;;5089658;28;20396;-53
2021/01/31 09:03:48;;;;;;;12.17;8.70;;;;;;;;;;5090776;28;20027;-54
2021/01/31 09:06:14;;;;;;;12.60;7.90;;;;;;;;;;5087777;28;20031;-57
2021/01/31 09:08:40;;;;;;;13.23;8.33;;;;;;;;;;5089549;28;20099;-57
2021/01/31 09:11:06;;;;;;;12.67;7.60;;;;;;;;;;5089947;28;20024;-54
2021/01/31 09:13:34;;;;;;;13.20;8.30;;;;;;;;;;5093718;28;20027;-54
2021/01/31 09:16:18;;;;;;;15.07;8.83;;;;;;;;;;5092442;28;20028;-56
2021/01/31 09:18:43;;;;;;;15.30;8.27;;;;;;;;;;5096091;28;20023;-51
2021/01/31 09:21:29;;;;;;;14.20;7.30;;;;;;;;;;5096361;28;20129;-55
2021/01/31 09:23:57;;;;;;;13.07;8.05;;;;;;;;;;5094876;28;20023;-57
2021/01/31 09:26:22;;;;;;;11.70;7.03;;;;;;;;;;5092860;28;20081;-54
2021/01/31 09:28:48;;;;;;;10.43;6.67;;;;;;;;;;5095584;28;20036;-57
2021/01/31 09:31:15;;;;;;;10.13;6.80;;;;;;;;;;5094864;28;20024;-56
2021/01/31 09:33:41;;;;;;;12.27;6.77;;;;;;;;;;5085013;28;20021;-57
2021/01/31 09:36:25;;;;;;;11.47;6.73;;;;;;;;;;5091137;28;20024;-57
2021/01/31 09:38:50;;;;;;;10.97;6.60;;;;;;;;;;5095292;28;20019;-56
2021/01/31 09:41:17;;;;;;;12.30;7.13;;;;;;;;;;5086097;28;20370;-53
2021/01/31 09:43:43;;;;;;;10.67;6.90;;;;;;;;;;5085752;28;20076;-56
2021/01/31 09:46:09;;;;;;;10.30;7.33;;;;;;;;;;5091147;28;20020;-56
2021/01/31 09:48:35;;;;;;;11.00;6.80;;;;;;;;;;5095609;28;20020;-53
2021/01/31 09:51:01;;;;;;;11.30;7.57;;;;;;;;;;5095410;28;20093;-54
2021/01/31 09:53:34;;;;;;;9.33;6.23;;;;;;;;;;5093654;28;20028;-56
2021/01/31 09:56:01;;;;;;;12.70;7.27;;;;;;;;;;5087337;28;20490;-54
2021/01/31 09:58:34;;;;;;;11.90;7.30;;;;;;;;;;5086468;28;20024;-52
2021/01/31 10:01:07;;;;;;;11.10;6.90;;;;;;;;;;5087452;28;20069;-57
2021/01/31 10:03:33;;;;;;;10.17;6.73;;;;;;;;;;5090368;28;20020;-56
2021/01/31 10:06:02;;;;;;;10.47;6.70;;;;;;;;;;5091574;28;20023;-56
2021/01/31 10:08:27;;;;;;;11.43;6.27;;;;;;;;;;5094789;28;20071;-55
2021/01/31 10:10:52;;;;;;;10.10;6.27;;;;;;;;;;5094604;28;20542;-52
2021/01/31 10:13:21;;;;;;;11.57;7.03;;;;;;;;;;5094411;28;20016;-57
2021/01/31 10:16:12;;;;;;;11.30;7.33;;;;;;;;;;5092032;28;20046;-58
2021/01/31 10:18:38;;;;;;;10.23;6.33;;;;;;;;;;5090794;28;20031;-52
2021/01/31 10:21:14;;;;;;;8.60;5.80;;;;;;;;;;5093534;28;20449;-57
2021/01/31 10:23:40;;;;;;;8.57;5.70;;;;;;;;;;5094635;28;20413;-56
2021/01/31 10:26:07;;;;;;;8.27;4.90;;;;;;;;;;5090494;28;20041;-56
2021/01/31 10:28:36;;;;;;;7.07;5.88;;;;;;;;;;5094430;28;20096;-58
2021/01/31 10:31:02;;;;;;;8.48;5.95;;;;;;;;;;5094119;28;20020;-58
2021/01/31 10:33:47;;;;;;;6.68;5.70;;;;;;;;;;5094461;28;20348;-55
2021/01/31 10:36:21;;;;;;;8.48;6.35;;;;;;;;;;5091475;28;20020;-57
2021/01/31 10:38:46;;;;;;;6.68;5.53;;;;;;;;;;5093270;28;20028;-54
2021/01/31 10:41:11;;;;;;;8.85;6.57;;;;;;;;;;5093473;28;20020;-52
2021/01/31 10:43:37;;;;;;;8.45;6.18;;;;;;;;;;5094426;28;20008;-54
2021/01/31 10:46:02;;;;;;;7.45;6.38;;;;;;;;;;5089322;28;20032;-56
2021/01/31 10:48:27;;;;;;;9.05;7.13;;;;;;;;;;5093708;28;20105;-51
2021/01/31 10:50:52;;;;;;;8.13;6.53;;;;;;;;;;5094242;28;20066;-53
2021/01/31 10:53:18;;;;;;;7.18;6.32;;;;;;;;;;5093275;28;20023;-56
2021/01/31 10:55:43;;;;;;;7.55;6.63;;;;;;;;;;5090601;28;20012;-56
2021/01/31 10:58:09;;;;;;;7.65;6.45;;;;;;;;;;5094055;28;20058;-54
2021/01/31 11:00:34;;;;;;;8.30;6.22;;;;;;;;;;5093714;28;20024;-52
2021/01/31 11:02:59;;;;;;;6.78;6.07;;;;;;;;;;5092720;28;20020;-53
2021/01/31 11:05:24;;;;;;;7.20;5.93;;;;;;;;;;5088432;28;20008;-57
2021/01/31 11:07:50;;;;;;;7.00;6.30;;;;;;;;;;5092502;28;20081;-57
2021/01/31 11:10:16;;;;;;;6.90;5.90;;;;;;;;;;5092469;28;20038;-53
2021/01/31 11:12:41;;;;;;;6.72;6.03;;;;;;;;;;5090990;28;20086;-56
2021/01/31 11:15:07;;;;;;;7.20;6.15;;;;;;;;;;5090441;28;20031;-55
2021/01/31 11:17:32;;;;;;;6.78;6.07;;;;;;;;;;5092681;28;20379;-55
2021/01/31 11:19:57;;;;;;;6.18;5.57;;;;;;;;;;5090555;28;20023;-58
2021/01/31 11:22:23;;;;;;;6.60;5.63;;;;;;;;;;5088585;28;20028;-57
2021/01/31 11:24:49;;;;;;;5.90;5.32;;;;;;;;;;5091561;28;20263;-56
2021/01/31 11:27:14;;;;;;;6.97;6.03;;;;;;;;;;5091450;28;20102;-58
2021/01/31 11:29:39;;;;;;;6.88;6.18;;;;;;;;;;5093474;28;20040;-55
2021/01/31 11:32:05;;;;;;;5.57;5.03;;;;;;;;;;5091926;28;20020;-58
2021/01/31 11:34:30;;;;;;;7.28;5.90;;;;;;;;;;5091859;28;20020;-56
2021/01/31 11:36:55;;;;;;;5.85;5.25;;;;;;;;;;5090367;28;20110;-56
2021/01/31 11:39:21;;;;;;;5.93;5.28;;;;;;;;;;5093057;28;20024;-55
2021/01/31 11:41:46;;;;;;;6.18;4.97;;;;;;;;;;5085466;28;20095;-58
2021/01/31 11:44:12;;;;;;;6.68;5.80;;;;;;;;;;5091724;28;20027;-57
2021/01/31 11:46:37;;;;;;;5.45;4.95;;;;;;;;;;5086020;28;20063;-57
2021/01/31 11:49:03;;;;;;;4.97;4.45;;;;;;;;;;5089677;28;20450;-57
2021/01/31 11:51:28;;;;;;;5.82;4.97;;;;;;;;;;5093134;28;20020;-56
2021/01/31 11:53:54;;;;;;;5.13;4.47;;;;;;;;;;5092382;28;20377;-57
2021/01/31 11:56:19;;;;;;;5.32;4.82;;;;;;;;;;5089666;28;20490;-57
2021/01/31 11:58:44;;;;;;;5.85;4.63;;;;;;;;;;5092248;28;20103;-56
2021/01/31 12:01:13;;;;;;;5.20;4.70;;;;;;;;;;5093344;28;20012;-57
2021/01/31 12:03:39;;;;;;;4.75;4.30;;;;;;;;;;5093010;28;20107;-53
2021/01/31 12:06:04;;;;;;;5.07;4.50;;;;;;;;;;5088241;28;20111;-58
2021/01/31 12:08:29;;;;;;;4.57;4.18;;;;;;;;;;5084955;28;20024;-55
2021/01/31 12:10:55;;;;;;;4.57;4.18;;;;;;;;;;5092162;28;20464;-56
2021/01/31 12:13:20;;;;;;;4.65;4.25;;;;;;;;;;5092475;28;20023;-56
2021/01/31 12:15:45;;;;;;;5.13;4.57;;;;;;;;;;5088689;28;20039;-56
2021/01/31 12:18:11;;;;;;;4.40;3.92;;;;;;;;;;5091098;28;20027;-59
2021/01/31 12:20:36;;;;;;;4.03;3.63;;;;;;;;;;5092530;28;20031;-58
2021/01/31 12:23:01;;;;;;;4.70;4.20;;;;;;;;;;5092155;28;20118;-54
2021/01/31 12:25:27;;;;;;;4.40;4.00;;;;;;;;;;5088985;28;20004;-56
2021/01/31 12:27:52;;;;;;;4.38;4.07;;;;;;;;;;5091788;28;20068;-57
2021/01/31 12:30:18;;;;;;;4.95;4.45;;;;;;;;;;5092387;28;20024;-56
2021/01/31 12:32:44;;;;;;;4.43;4.03;;;;;;;;;;5091836;28;20426;-58
2021/01/31 12:35:09;;;;;;;4.40;4.00;;;;;;;;;;5088894;28;20339;-57
2021/01/31 12:37:34;;;;;;;3.88;3.47;;;;;;;;;;5091687;28;20361;-57
2021/01/31 12:40:00;;;;;;;3.83;3.45;;;;;;;;;;5090670;28;20089;-57
2021/01/31 12:42:25;;;;;;;3.78;3.20;;;;;;;;;;5092776;28;20450;-57
2021/01/31 12:44:50;;;;;;;3.30;3.00;;;;;;;;;;5097774;28;20016;-57
2021/01/31 12:47:15;;;;;;;3.57;3.27;;;;;;;;;;5095758;28;20795;-56
2021/01/31 12:49:41;;;;;;;3.63;3.30;;;;;;;;;;5090255;28;20602;-57
2021/01/31 12:52:06;;;;;;;3.50;3.20;;;;;;;;;;5098061;28;20445;-56
2021/01/31 12:54:32;;;;;;;3.30;3.00;;;;;;;;;;5096438;28;20024;-56
2021/01/31 12:56:57;;;;;;;3.47;2.85;;;;;;;;;;5095913;28;20054;-58
2021/01/31 12:59:22;;;;;;;3.35;2.72;;;;;;;;;;5098154;28;20032;-57
2021/01/31 13:01:47;;;;;;;3.85;3.25;;;;;;;;;;5097505;28;20062;-56
2021/01/31 13:04:13;;;;;;;3.58;2.72;;;;;;;;;;5098969;28;20028;-58
2021/01/31 13:06:38;;;;;;;3.45;2.58;;;;;;;;;;5096141;28;20020;-57
2021/01/31 13:09:04;;;;;;;3.67;2.50;;;;;;;;;;5089134;28;20449;-56
2021/01/31 13:11:29;;;;;;;4.00;3.47;;;;;;;;;;5098281;28;20016;-52
2021/01/31 13:13:54;;;;;;;3.22;2.60;;;;;;;;;;5097669;28;20035;-58
2021/01/31 13:16:19;;;;;;;3.50;2.80;;;;;;;;;;5087405;28;20012;-57
2021/01/31 13:18:47;;;;;;;4.82;2.35;;;;;;;;;;5098280;28;20035;-54
2021/01/31 13:21:12;;;;;;;4.03;2.60;;;;;;;;;;5098434;28;20471;-57
2021/01/31 13:23:38;;;;;;;3.45;2.28;;;;;;;;;;5090493;28;20012;-55
2021/01/31 13:26:03;;;;;;;2.72;1.77;;;;;;;;;;5092755;28;20489;-54
2021/01/31 13:28:28;;;;;;;3.03;2.25;;;;;;;;;;5098390;28;20047;-56
2021/01/31 13:30:54;;;;;;;3.05;2.17;;;;;;;;;;5097345;28;20035;-56
2021/01/31 13:33:19;;;;;;;2.85;1.80;;;;;;;;;;5098551;28;20020;-58
2021/01/31 13:35:44;;;;;;;3.17;1.90;;;;;;;;;;5095092;28;20024;-56
2021/01/31 13:38:11;;;;;;;3.05;1.88;;;;;;;;;;5098253;28;20475;-58
2021/01/31 13:40:36;;;;;;;2.83;2.08;;;;;;;;;;5091292;28;20126;-58
2021/01/31 13:43:02;;;;;;;3.08;1.90;;;;;;;;;;5092456;28;20550;-56
2021/01/31 13:45:27;;;;;;;3.45;2.15;;;;;;;;;;5093143;28;20019;-55
2021/01/31 13:47:52;;;;;;;2.97;1.60;;;;;;;;;;5097718;28;20031;-55
2021/01/31 13:50:19;;;;;;;2.85;1.33;;;;;;;;;;5097240;28;20055;-56
2021/01/31 13:52:44;;;;;;;3.75;1.83;;;;;;;;;;5097422;28;20382;-57
2021/01/31 13:55:09;;;;;;;2.80;1.43;;;;;;;;;;5092508;28;20219;-56
2021/01/31 13:57:35;;;;;;;2.77;1.50;;;;;;;;;;5088136;28;20035;-58
2021/01/31 14:00:00;;;;;;;2.83;1.50;;;;;;;;;;5093844;28;20023;-57
2021/01/31 14:02:25;;;;;;;2.60;1.17;;;;;;;;;;5094886;28;20440;-56
2021/01/31 14:04:50;;;;;;;1.40;0.83;;;;;;;;;;5094019;28;20024;-58
2021/01/31 14:07:16;;;;;;;1.50;0.80;;;;;;;;;;5092962;28;20039;-55
2021/01/31 14:09:41;;;;;;;2.87;1.30;;;;;;;;;;5093313;28;20016;-53
2021/01/31 14:12:06;;;;;;;1.70;0.80;;;;;;;;;;5094369;28;20046;-56
2021/01/31 14:14:32;;;;;;;2.00;0.93;;;;;;;;;;5094689;28;20106;-56
2021/01/31 14:16:57;;;;;;;1.90;0.90;;;;;;;;;;5090939;28;20023;-53
2021/01/31 14:19:22;;;;;;;1.50;1.00;;;;;;;;;;5090986;28;20073;-53
2021/01/31 14:21:47;;;;;;;1.23;0.70;;;;;;;;;;5086739;28;20099;-56
2021/01/31 14:24:13;;;;;;;2.03;0.83;;;;;;;;;;5092674;28;20498;-55
2021/01/31 14:26:38;;;;;;;1.83;0.73;;;;;;;;;;5090343;28;20458;-58
2021/01/31 14:29:03;;;;;;;3.33;1.23;;;;;;;;;;5093136;28;20078;-56
2021/01/31 14:31:29;;;;;;;2.50;0.70;;;;;;;;;;5095335;28;20028;-57
2021/01/31 14:33:55;;;;;;;1.93;0.80;;;;;;;;;;5094320;28;20386;-56
2021/01/31 14:36:20;;;;;;;3.10;1.00;;;;;;;;;;5091680;28;20059;-57
2021/01/31 14:38:45;;;;;;;2.03;0.70;;;;;;;;;;5093115;28;20016;-57
2021/01/31 14:41:10;;;;;;;2.43;1.23;;;;;;;;;;5094675;28;20531;-54
2021/01/31 14:43:36;;;;;;;2.20;1.17;;;;;;;;;;5093871;28;20024;-57
2021/01/31 14:46:01;;;;;;;1.87;0.90;;;;;;;;;;5091309;28;20425;-56